Skip Navigation Links Skip Navigation Links

Current Weather

Robert J. Miller Air Park, Toms River, N.J.

For information only: do not use for flight planning or navigation.
Latest weather
Observation time Saturday, January 23, 2021 8:56 PM EST
Local time Saturday, January 23, 2021 9:43 PM EST
Flight conditions Visual Meteorological Conditions
Winds
Wind direction Northwest (310°)
Wind speed 16 mph
Wind gusting to 22 mph
Visibility 10 mi.
Sky condition
Ceiling unlimited
Sky clear
Temperature 27°F
Dewpoint 10°F
Altimeter 30.19 in.Hg
Derived measurements
Relative humidity 48%
Wind chill 15°F
Density altitude -2375 ft.
Sea-level pressure 30.21 in.Hg
Remarks
Fully automated report.
Automated weather observing station with precipitation discriminator.
Freezing rain sensor not operating.
METAR KMJX 240156Z AUTO 31014G19KT 10SM CLR M03/M12 A3019 RMK AO2 SLP229 T10281122 FZRANO

Settings

Location code

InnerDrive.Weather 4.0.6770.0 Release CLR 4.0.30319.42000
Copyright ©2018 Inner Drive Technology. All rights reserved. Portions Copyright ©1986-2018 David Braverman.

Find weather

Site navigation


Skip Navigation Links

Place info

Page info

PayPal - The safer, easier way to pay online!

Return home.

Copyright ©2021 Inner Drive Technology. Purveyors of fine, hand-crafted computer software. Page printed 2021-01-24T02:43:11 UTC.